Cranbrook, Canada
Current Conditions -  °F | °C
As of 2:00 PM on Tuesday 25 Nov 2014 (Local Time) from CYXC Reporting Station
Overcast Overcast  
Wind Chill: 30°   Ceiling: 15000
Heat Index: 34°   Visibility: 12mi
Dew Point: 30°   Wind: 5mph
Humidity: 87%   Direction: 20°NNE
Pressure: 30.1"   Gusts: NA
Location:  49.51°N, 115.77°W
Report Text: CYXC 252100Z 02004KT 12SM FEW002 SCT007 OVC150 01/M01 A3010 RMK SF1SC3AC4 SLP225
Loading
Personal Weather Stations






























Interactive Weather Map New forecast layout! Learn more

10-Day Weather Forecast

Advertisements
Track Severe Weather on mobile